Time;durP1;ratioP1;P1;durP2;ratioP2;P2;SDS_P1;SDS_P2;PMS_P1;PMS_P2;Temp;Humidity;BMP_temperature;BMP_pressure;BME280_temperature;BME280_humidity;BME280_pressure;Samples;Min_cycle;Max_cycle;Signal;HPM_P1;HPM_P2
2022/02/12 00:00:14;;;;;;;3.60;1.75;;;-3.00;99.90;;;;;;5094354;28;20040;-59
2022/02/12 00:03:39;;;;;;;2.92;1.30;;;-3.10;99.90;;;;;;5103377;28;20620;-60
2022/02/12 00:07:05;;;;;;;1.80;1.20;;;-3.10;99.90;;;;;;5105572;28;20040;-60
2022/02/12 00:10:30;;;;;;;3.13;1.27;;;-3.10;99.90;;;;;;5105524;28;20036;-59
2022/02/12 00:13:55;;;;;;;4.80;2.00;;;-3.10;99.90;;;;;;5103720;28;20036;-59
2022/02/12 00:17:21;;;;;;;10.02;2.65;;;-3.10;99.90;;;;;;5102622;28;20039;-59
2022/02/12 00:20:46;;;;;;;7.40;2.13;;;-3.10;99.90;;;;;;5103547;28;20031;-60
2022/02/12 00:24:12;;;;;;;5.13;1.25;;;-3.20;99.90;;;;;;5093797;28;20040;-59
2022/02/12 00:27:37;;;;;;;3.05;1.40;;;-3.10;99.90;;;;;;5107344;28;20399;-59
2022/02/12 00:31:02;;;;;;;5.25;1.70;;;-2.90;99.90;;;;;;5093688;28;20040;-59
2022/02/12 00:34:28;;;;;;;6.88;2.08;;;-2.90;99.90;;;;;;5100943;28;20514;-59
2022/02/12 00:37:53;;;;;;;2.70;1.40;;;-2.70;99.90;;;;;;5099813;28;20117;-59
2022/02/12 00:41:18;;;;;;;4.53;1.60;;;-2.70;99.90;;;;;;5092435;28;20036;-59
2022/02/12 00:44:44;;;;;;;4.97;1.67;;;-2.70;99.90;;;;;;5098939;28;20031;-58
2022/02/12 00:48:09;;;;;;;4.95;1.60;;;-2.60;99.90;;;;;;5099124;28;20031;-56
2022/02/12 00:51:34;;;;;;;3.47;1.60;;;-2.60;99.90;;;;;;5101870;28;20579;-59
2022/02/12 00:55:00;;;;;;;5.72;1.73;;;-2.60;99.90;;;;;;5099910;28;20035;-59
2022/02/12 00:58:25;;;;;;;2.53;1.38;;;-2.60;99.90;;;;;;5105099;28;20039;-59
2022/02/12 01:01:51;;;;;;;3.53;1.35;;;-2.70;99.90;;;;;;5104134;28;20070;-59
2022/02/12 01:05:16;;;;;;;3.22;1.48;;;-2.60;99.90;;;;;;5103063;28;20031;-59
2022/02/12 01:08:41;;;;;;;13.65;2.90;;;-2.80;99.90;;;;;;5101505;28;20148;-59
2022/02/12 01:12:07;;;;;;;11.38;3.25;;;-2.80;99.90;;;;;;5105189;28;20047;-59
2022/02/12 01:15:33;;;;;;;12.02;2.85;;;-2.80;99.90;;;;;;5103263;28;20078;-59
2022/02/12 01:18:57;;;;;;;4.30;2.10;;;-3.00;99.90;;;;;;5089277;28;20047;-59
2022/02/12 01:22:24;;;;;;;6.18;2.00;;;-3.10;99.90;;;;;;5103790;28;20134;-59
2022/02/12 01:25:48;;;;;;;7.32;2.03;;;-3.20;99.90;;;;;;5105637;28;20407;-59
2022/02/12 01:29:14;;;;;;;11.95;2.10;;;-3.40;99.90;;;;;;5107621;28;20063;-58
2022/02/12 01:32:39;;;;;;;4.25;1.98;;;-3.40;99.90;;;;;;5103932;28;20455;-58
2022/02/12 01:36:04;;;;;;;5.50;1.95;;;-3.40;99.90;;;;;;5102098;28;20042;-59
2022/02/12 01:39:29;;;;;;;6.55;1.77;;;-3.40;99.90;;;;;;5106463;28;20101;-58
2022/02/12 01:42:55;;;;;;;22.52;3.92;;;-3.40;99.90;;;;;;5096820;28;20043;-59
2022/02/12 01:46:20;;;;;;;15.55;2.83;;;-3.50;99.90;;;;;;5101791;28;20027;-59
2022/02/12 01:49:45;;;;;;;21.73;3.92;;;-3.60;99.90;;;;;;5101697;28;20031;-60
2022/02/12 01:53:11;;;;;;;8.10;2.88;;;-3.70;99.90;;;;;;5109046;28;20056;-59
2022/02/12 01:56:36;;;;;;;15.27;4.32;;;-3.70;99.90;;;;;;5103744;28;20032;-60
2022/02/12 02:00:02;;;;;;;76.53;12.90;;;-3.70;99.90;;;;;;5105096;28;20031;-59
2022/02/12 02:03:27;;;;;;;48.55;11.13;;;-3.60;99.90;;;;;;5088630;28;20035;-59
2022/02/12 02:06:52;;;;;;;84.18;13.52;;;-3.70;99.90;;;;;;5105872;28;20028;-59
2022/02/12 02:10:18;;;;;;;52.42;10.77;;;-3.70;99.90;;;;;;5101166;28;20510;-60
2022/02/12 02:13:43;;;;;;;70.60;12.57;;;-3.90;99.90;;;;;;5088753;28;20070;-59
2022/02/12 02:17:08;;;;;;;52.60;10.63;;;-3.90;99.90;;;;;;5104950;28;20495;-59
2022/02/12 02:20:34;;;;;;;88.95;14.15;;;-3.90;99.90;;;;;;5095071;28;20046;-59
2022/02/12 02:23:59;;;;;;;37.78;9.18;;;-4.00;99.90;;;;;;5103184;28;20079;-58
2022/02/12 02:27:28;;;;;;;57.83;11.00;;;-4.00;99.90;;;;;;5103414;28;20036;-60
2022/02/12 02:30:50;;;;;;;30.73;7.13;;;-4.10;99.90;;;;;;5100544;28;20036;-59
2022/02/12 02:34:15;;;;;;;35.20;7.35;;;-4.10;99.90;;;;;;5106965;28;20028;-59
2022/02/12 02:37:42;;;;;;;20.58;5.57;;;-4.10;99.90;;;;;;5106032;28;20071;-59
2022/02/12 02:41:06;;;;;;;18.67;5.43;;;-4.10;99.90;;;;;;5104585;28;20035;-59
2022/02/12 02:44:31;;;;;;;28.08;6.53;;;-4.20;99.90;;;;;;5101695;28;20663;-58
2022/02/12 02:47:57;;;;;;;28.60;6.80;;;-4.00;99.90;;;;;;5108393;28;20032;-59
2022/02/12 02:58:17;;;;;;;12.10;4.07;;;-4.20;99.90;;;;;;5092095;28;20031;-59
2022/02/12 03:01:43;;;;;;;13.35;4.28;;;-4.20;99.90;;;;;;5103826;28;20409;-59
2022/02/12 03:05:08;;;;;;;19.30;4.93;;;-4.20;99.90;;;;;;5100531;28;20028;-59
2022/02/12 03:08:33;;;;;;;24.80;5.47;;;-4.20;99.90;;;;;;5108354;28;20040;-59
2022/02/12 03:11:59;;;;;;;14.48;4.32;;;-4.30;99.90;;;;;;5109444;28;20039;-60
2022/02/12 03:15:24;;;;;;;19.88;4.90;;;-4.30;99.90;;;;;;5104518;28;20028;-59
2022/02/12 03:18:50;;;;;;;19.45;4.40;;;-4.40;99.90;;;;;;5106519;28;20070;-60
2022/02/12 03:22:15;;;;;;;13.55;4.18;;;-4.40;99.90;;;;;;5109780;28;20044;-59
2022/02/12 03:25:40;;;;;;;9.00;2.60;;;-4.40;99.90;;;;;;5104703;28;20487;-59
2022/02/12 03:29:05;;;;;;;10.27;3.45;;;-4.40;99.90;;;;;;5106333;28;20040;-59
2022/02/12 03:32:31;;;;;;;4.97;2.58;;;-4.50;99.90;;;;;;5091775;28;20051;-59
2022/02/12 03:35:56;;;;;;;13.23;3.38;;;-4.50;99.90;;;;;;5101032;28;20027;-58
2022/02/12 03:39:22;;;;;;;7.47;2.45;;;-4.50;99.90;;;;;;5109994;28;20031;-60
2022/02/12 03:42:47;;;;;;;6.05;2.40;;;-4.50;99.90;;;;;;5098507;28;20048;-59
2022/02/12 03:46:12;;;;;;;6.57;2.25;;;-4.50;99.90;;;;;;5104033;28;20036;-59
2022/02/12 03:49:38;;;;;;;2.17;1.55;;;-4.50;99.90;;;;;;5089456;28;20650;-59
2022/02/12 03:53:03;;;;;;;5.68;1.58;;;-4.50;99.90;;;;;;5111193;28;20067;-59
2022/02/12 03:56:28;;;;;;;3.00;1.35;;;-4.50;99.90;;;;;;5107591;28;20047;-59
2022/02/12 03:59:54;;;;;;;4.88;1.77;;;-4.50;99.90;;;;;;5106303;28;20185;-59
2022/02/12 04:03:19;;;;;;;6.55;2.38;;;-4.50;99.90;;;;;;5090833;28;20048;-59
2022/02/12 04:06:44;;;;;;;8.25;2.28;;;-4.50;99.90;;;;;;5107668;28;20360;-59
2022/02/12 04:10:10;;;;;;;6.78;2.55;;;-4.60;99.90;;;;;;5107340;28;20023;-59
2022/02/12 04:12:55;;;;;;;4.05;1.90;;;-4.60;99.90;;;;;;5090759;28;20511;-62
2022/02/12 04:15:22;;;;;;;10.80;2.60;;;-4.60;99.90;;;;;;5108487;28;20028;-62
2022/02/12 04:17:50;;;;;;;7.25;3.17;;;-4.60;99.90;;;;;;5111056;28;20069;-62
2022/02/12 04:20:17;;;;;;;7.10;3.17;;;-4.70;99.90;;;;;;5108782;28;20039;-62
2022/02/12 04:22:44;;;;;;;6.68;2.80;;;-4.70;99.90;;;;;;5109811;28;20067;-62
2022/02/12 04:25:12;;;;;;;5.93;2.67;;;-4.70;99.90;;;;;;5109052;28;20031;-62
2022/02/12 04:27:37;;;;;;;4.32;2.25;;;-4.70;99.90;;;;;;5110868;28;20032;-62
2022/02/12 04:30:05;;;;;;;10.73;3.58;;;-4.70;99.90;;;;;;5108610;28;20049;-62
2022/02/12 04:32:30;;;;;;;9.75;3.03;;;-4.70;99.90;;;;;;5110672;28;20032;-62
2022/02/12 04:34:56;;;;;;;9.77;2.65;;;-4.70;99.90;;;;;;5108552;28;20043;-62
2022/02/12 04:38:02;;;;;;;7.93;3.47;;;-4.80;99.90;;;;;;5110578;28;20575;-62
2022/02/12 04:41:27;;;;;;;7.10;2.75;;;-4.80;99.90;;;;;;5103520;28;20035;-62
2022/02/12 04:44:52;;;;;;;6.07;2.42;;;-4.80;99.90;;;;;;5090336;28;20063;-62
2022/02/12 04:48:17;;;;;;;5.70;2.28;;;-4.80;99.90;;;;;;5110056;28;20028;-61
2022/02/12 04:51:43;;;;;;;6.30;1.95;;;-4.80;99.90;;;;;;5105823;28;20494;-63
2022/02/12 04:55:09;;;;;;;2.75;1.42;;;-4.80;99.90;;;;;;5106331;28;20046;-62
2022/02/12 04:58:33;;;;;;;3.70;1.50;;;-4.80;99.90;;;;;;5089885;28;20595;-62
2022/02/12 05:01:59;;;;;;;10.98;3.15;;;-4.90;99.90;;;;;;5107815;28;20187;-62
2022/02/12 05:05:24;;;;;;;8.43;2.45;;;-4.90;99.90;;;;;;5102604;28;20112;-62
2022/02/12 05:08:50;;;;;;;7.00;3.00;;;-4.90;99.90;;;;;;5089975;28;20134;-62
2022/02/12 05:12:15;;;;;;;7.65;2.88;;;-4.90;99.90;;;;;;5089756;28;20514;-62
2022/02/12 05:15:40;;;;;;;8.15;2.65;;;-5.00;99.90;;;;;;5102380;28;20028;-63
2022/02/12 05:19:06;;;;;;;4.68;2.40;;;-5.00;99.90;;;;;;5104102;28;20031;-62
2022/02/12 05:22:31;;;;;;;6.40;2.72;;;-5.00;99.90;;;;;;5103898;28;20051;-62
2022/02/12 05:25:56;;;;;;;2.45;2.08;;;-5.00;99.90;;;;;;5104797;28;20035;-62
2022/02/12 05:29:22;;;;;;;6.90;3.08;;;-5.00;99.90;;;;;;5101930;28;20032;-62
2022/02/12 05:32:47;;;;;;;4.15;2.53;;;-5.00;99.90;;;;;;5103669;28;20039;-63
2022/02/12 05:36:13;;;;;;;10.60;3.65;;;-5.00;99.90;;;;;;5103710;28;20038;-62
2022/02/12 05:39:38;;;;;;;7.90;2.28;;;-5.00;99.90;;;;;;5102017;28;20499;-62
2022/02/12 05:43:03;;;;;;;8.07;3.05;;;-5.00;99.90;;;;;;5100068;28;20043;-62
2022/02/12 05:46:29;;;;;;;8.60;2.65;;;-5.00;99.90;;;;;;5103688;28;20042;-62
2022/02/12 05:49:54;;;;;;;3.97;1.88;;;-5.00;99.90;;;;;;5101972;28;20036;-63
2022/02/12 05:53:19;;;;;;;8.00;3.15;;;-5.00;99.90;;;;;;5103516;28;20040;-63
2022/02/12 05:56:45;;;;;;;11.05;3.03;;;-4.90;99.90;;;;;;5102537;28;20046;-63
2022/02/12 06:00:10;;;;;;;3.05;2.08;;;-4.90;99.90;;;;;;5106323;28;20057;-62
2022/02/12 06:03:35;;;;;;;6.07;3.00;;;-4.90;99.90;;;;;;5106739;28;20082;-63
2022/02/12 06:07:01;;;;;;;5.18;2.22;;;-4.90;99.90;;;;;;5104874;28;20456;-64
2022/02/12 06:10:27;;;;;;;14.23;2.83;;;-4.90;99.90;;;;;;5088776;28;20044;-63
2022/02/12 06:13:52;;;;;;;4.63;2.28;;;-4.90;99.90;;;;;;5103391;28;20084;-64
2022/02/12 06:17:17;;;;;;;4.95;2.22;;;-4.80;99.90;;;;;;5101520;28;20035;-63
2022/02/12 06:20:42;;;;;;;4.28;2.50;;;-4.70;99.90;;;;;;5100893;28;20043;-63
2022/02/12 06:24:08;;;;;;;5.82;2.38;;;-4.60;99.90;;;;;;5094661;28;20079;-64
2022/02/12 06:27:33;;;;;;;11.05;3.17;;;-4.50;99.90;;;;;;5102636;28;20054;-63
2022/02/12 06:31:01;;;;;;;7.90;2.78;;;-4.50;99.90;;;;;;5101140;28;20441;-67
2022/02/12 06:34:24;;;;;;;9.50;3.20;;;-4.40;99.90;;;;;;5108032;28;20043;-63
2022/02/12 06:37:49;;;;;;;8.85;3.20;;;-4.50;99.90;;;;;;5104466;28;20036;-63
2022/02/12 06:41:14;;;;;;;8.30;3.58;;;-4.40;99.90;;;;;;5103440;28;20055;-63
2022/02/12 06:44:40;;;;;;;11.32;3.40;;;-4.30;99.90;;;;;;5088261;28;20109;-63
2022/02/12 06:48:05;;;;;;;10.93;3.42;;;-4.30;99.90;;;;;;5110532;28;20502;-63
2022/02/12 06:51:30;;;;;;;8.00;3.30;;;-4.20;99.90;;;;;;5108562;28;20039;-63
2022/02/12 06:54:56;;;;;;;10.35;3.20;;;-4.10;99.90;;;;;;5092078;28;20042;-63
2022/02/12 06:58:21;;;;;;;9.75;4.00;;;-4.00;99.90;;;;;;5106309;28;20038;-63
2022/02/12 07:01:47;;;;;;;7.10;2.92;;;-3.90;99.90;;;;;;5104734;28;20032;-63
2022/02/12 07:05:12;;;;;;;8.10;2.58;;;-3.80;99.90;;;;;;5110297;28;20043;-63
2022/02/12 07:08:37;;;;;;;7.05;2.53;;;-3.70;99.90;;;;;;5106631;28;20130;-63
2022/02/12 07:12:03;;;;;;;5.97;3.67;;;-3.50;99.90;;;;;;5104485;28;20050;-63
2022/02/12 07:15:28;;;;;;;14.63;4.75;;;-3.20;99.90;;;;;;5110030;28;20024;-63
2022/02/12 07:18:53;;;;;;;8.43;3.63;;;-2.90;99.90;;;;;;5106229;28;20044;-63
2022/02/12 07:22:25;;;;;;;13.15;4.82;;;-2.30;99.90;;;;;;5104141;28;20067;-63
2022/02/12 07:25:44;;;;;;;11.50;4.45;;;-2.10;99.90;;;;;;5106044;28;20422;-63
2022/02/12 07:29:09;;;;;;;9.63;4.28;;;-1.40;99.90;;;;;;5111367;28;20494;-62
2022/02/12 07:32:35;;;;;;;8.90;3.83;;;-0.40;99.90;;;;;;5105533;28;20038;-63
2022/02/12 07:36:00;;;;;;;12.80;4.95;;;0.40;99.90;;;;;;5107620;28;20019;-63
2022/02/12 07:39:27;;;;;;;9.90;3.72;;;1.10;99.90;;;;;;5111491;28;20399;-63
2022/02/12 07:42:51;;;;;;;8.88;3.40;;;1.10;99.90;;;;;;5103835;28;20333;-63
2022/02/12 07:46:16;;;;;;;11.43;3.45;;;1.60;99.90;;;;;;5094305;28;20495;-64
2022/02/12 07:49:42;;;;;;;7.72;3.42;;;2.10;99.90;;;;;;5111584;28;20042;-64
2022/02/12 07:53:07;;;;;;;11.00;3.92;;;2.80;99.90;;;;;;5105596;28;20041;-64
2022/02/12 07:56:32;;;;;;;10.05;4.28;;;3.60;99.90;;;;;;5103652;28;20043;-64
2022/02/12 07:59:58;;;;;;;10.82;4.20;;;4.10;99.90;;;;;;5108118;28;20073;-64
2022/02/12 08:03:23;;;;;;;8.15;3.58;;;4.10;99.90;;;;;;5105134;28;20592;-64
2022/02/12 08:13:36;;;;;;;6.07;3.33;;;4.60;99.90;;;;;;5107679;28;20530;-64
2022/02/12 08:17:02;;;;;;;8.05;3.00;;;4.90;99.90;;;;;;5106919;28;20039;-65
2022/02/12 08:20:27;;;;;;;7.40;2.90;;;6.20;99.90;;;;;;5106884;28;20035;-64
2022/02/12 08:23:52;;;;;;;8.35;3.42;;;8.00;99.90;;;;;;5104695;28;20063;-65
2022/02/12 08:27:18;;;;;;;4.93;2.97;;;8.00;98.40;;;;;;5100668;28;20506;-63
2022/02/12 08:30:06;;;;;;;8.95;3.17;;;8.70;90.50;;;;;;5108496;28;20120;-63
2022/02/12 08:33:11;;;;;;;8.82;2.90;;;8.40;99.90;;;;;;5110652;28;20440;-62
2022/02/12 08:36:37;;;;;;;4.72;2.22;;;9.20;99.90;;;;;;5097904;28;20031;-62
2022/02/12 08:40:02;;;;;;;5.97;2.72;;;10.40;82.10;;;;;;5093520;28;20054;-62
2022/02/12 08:43:27;;;;;;;5.80;2.65;;;12.00;80.60;;;;;;5099919;28;20054;-63
2022/02/12 08:46:53;;;;;;;5.88;2.35;;;13.10;61.50;;;;;;5104920;28;20075;-62
2022/02/12 08:50:18;;;;;;;5.18;2.30;;;13.90;52.40;;;;;;5104143;28;20655;-63
2022/02/12 08:53:43;;;;;;;6.22;2.30;;;14.00;42.40;;;;;;5092090;28;20084;-63
2022/02/12 08:57:09;;;;;;;4.68;2.40;;;14.50;34.20;;;;;;5102104;28;20039;-62
2022/02/12 09:00:34;;;;;;;6.03;2.63;;;14.40;33.70;;;;;;5101812;28;20047;-63
2022/02/12 09:03:59;;;;;;;5.63;2.08;;;14.50;37.30;;;;;;5100057;28;20052;-65
2022/02/12 09:07:27;;;;;;;7.82;2.95;;;14.80;37.00;;;;;;5100878;28;20036;-63
2022/02/12 09:10:53;;;;;;;5.50;2.25;;;15.50;35.40;;;;;;5093908;28;20130;-63
2022/02/12 09:14:18;;;;;;;6.15;2.47;;;15.70;38.20;;;;;;5103057;28;20026;-62
2022/02/12 09:17:44;;;;;;;5.03;2.17;;;15.60;30.10;;;;;;5104997;28;20060;-63
2022/02/12 09:21:09;;;;;;;5.38;2.22;;;15.80;34.10;;;;;;5109314;28;20027;-61
2022/02/12 09:24:34;;;;;;;3.50;1.98;;;16.30;29.50;;;;;;5107219;28;20541;-63
2022/02/12 09:28:00;;;;;;;7.07;2.80;;;16.40;25.90;;;;;;5102346;28;20181;-63
2022/02/12 09:31:25;;;;;;;6.55;2.33;;;16.30;28.00;;;;;;5089186;28;20058;-63
2022/02/12 09:34:50;;;;;;;5.85;2.28;;;16.10;26.90;;;;;;5099248;28;20031;-64
2022/02/12 09:38:16;;;;;;;8.57;3.72;;;16.40;23.60;;;;;;5102751;28;20057;-64
2022/02/12 09:41:41;;;;;;;7.10;2.28;;;15.50;23.30;;;;;;5102919;28;20123;-63
2022/02/12 09:45:06;;;;;;;5.70;2.28;;;14.50;25.50;;;;;;5097677;28;20674;-62
2022/02/12 09:48:32;;;;;;;7.15;2.67;;;12.00;35.80;;;;;;5102799;28;20028;-62
2022/02/12 09:52:00;;;;;;;8.27;2.45;;;10.00;47.70;;;;;;5102584;28;20024;-63
2022/02/12 09:55:27;;;;;;;6.05;2.20;;;8.50;63.20;;;;;;5102603;28;20028;-63
2022/02/12 09:58:51;;;;;;;7.47;3.40;;;7.30;65.30;;;;;;5100499;28;20043;-62
2022/02/12 10:02:20;;;;;;;8.88;2.97;;;6.70;91.30;;;;;;5087860;28;20119;-64
2022/02/12 10:05:25;;;;;;;;;;;6.40;99.70;;;;;;5103196;28;20402;-63
2022/02/12 10:08:49;;;;;;;4.50;2.17;;;6.10;92.20;;;;;;5094938;28;20303;-63
2022/02/12 10:12:11;;;;;;;8.15;3.03;;;5.90;99.90;;;;;;5105077;28;20034;-63
2022/02/12 10:14:37;;;;;;;10.07;3.30;;;5.70;99.20;;;;;;5066420;28;20054;-45
2022/02/12 10:17:03;;;;;;;5.40;1.98;;;5.70;99.90;;;;;;5107066;28;20664;-48
2022/02/12 10:19:38;;;;;;;7.15;2.05;;;5.70;99.90;;;;;;5092416;28;20103;-50
2022/02/12 10:22:07;;;;;;;4.68;2.15;;;5.70;99.90;;;;;;5112198;28;20462;-48
2022/02/12 10:24:52;;;;;;;5.72;2.38;;;5.60;99.90;;;;;;5110285;28;20547;-50
2022/02/12 10:27:24;;;;;;;8.57;2.03;;;5.50;99.90;;;;;;5112220;28;20036;-52
2022/02/12 10:29:51;;;;;;;9.05;2.08;;;5.50;99.90;;;;;;5106996;28;20577;-49
2022/02/12 10:32:19;;;;;;;7.15;2.10;;;5.40;99.90;;;;;;5112199;28;20058;-48
2022/02/12 10:34:47;;;;;;;7.95;2.33;;;5.40;99.90;;;;;;5093635;28;20165;-47
2022/02/12 10:37:15;;;;;;;8.45;2.60;;;5.40;99.90;;;;;;5111843;28;20042;-50
2022/02/12 10:39:51;;;;;;;11.15;2.90;;;5.20;97.80;;;;;;5090988;28;20024;-50
2022/02/12 10:42:17;;;;;;;6.10;2.20;;;5.30;99.70;;;;;;5107469;28;20511;-44
2022/02/12 10:44:44;;;;;;;8.15;3.50;;;5.20;99.90;;;;;;5109820;28;20028;-46
2022/02/12 10:47:13;;;;;;;6.75;2.72;;;5.00;96.80;;;;;;5111840;28;20508;-47
2022/02/12 10:49:43;;;;;;;9.40;3.03;;;4.90;99.90;;;;;;5092646;28;20028;-48
2022/02/12 10:52:08;;;;;;;11.32;3.17;;;4.90;99.90;;;;;;5111640;28;20071;-47
2022/02/12 10:54:45;;;;;;;8.55;2.88;;;4.90;99.90;;;;;;5109494;28;20517;-47
2022/02/12 10:57:51;;;;;;;17.75;7.00;;;5.00;99.90;;;;;;5091468;28;20031;-50
2022/02/12 11:01:16;;;;;;;13.43;4.70;;;5.00;99.90;;;;;;5109519;28;20040;-47
2022/02/12 11:04:41;;;;;;;7.25;2.95;;;5.10;99.90;;;;;;5106432;28;20504;-47
2022/02/12 11:08:07;;;;;;;6.68;2.35;;;5.10;98.50;;;;;;5104996;28;20039;-45
2022/02/12 11:11:32;;;;;;;5.38;1.92;;;5.00;98.10;;;;;;5107589;28;20047;-47
2022/02/12 11:14:58;;;;;;;8.95;2.13;;;5.00;97.30;;;;;;5096288;28;20111;-48
2022/02/12 11:18:23;;;;;;;6.97;1.85;;;5.10;97.20;;;;;;5104701;28;20036;-49
2022/02/12 11:21:48;;;;;;;8.23;2.40;;;5.20;91.90;;;;;;5104867;28;20051;-49
2022/02/12 11:25:17;;;;;;;7.68;2.00;;;5.20;89.90;;;;;;5107089;28;20035;-46
2022/02/12 11:28:45;;;;;;;7.13;1.67;;;5.30;87.90;;;;;;5108052;28;20574;-49
2022/02/12 11:31:50;;;;;;;;;;;5.20;76.10;;;;;;5104381;28;20031;-48
2022/02/12 11:34:57;;;;;;;16.52;2.28;;;5.20;73.50;;;;;;5099596;28;19985;-48
2022/02/12 11:38:21;;;;;;;6.75;2.10;;;5.20;78.20;;;;;;5090129;28;20036;-45
2022/02/12 11:42:02;;;;;;;9.70;2.85;;;5.20;80.00;;;;;;5105165;28;20067;-48
2022/02/12 11:45:36;;;;;;;8.02;2.03;;;5.30;77.00;;;;;;5102366;28;20036;-46
2022/02/12 11:49:11;;;;;;;7.55;1.80;;;5.30;71.40;;;;;;5108413;28;20075;-47
2022/02/12 11:52:16;;;;;;;5.97;1.77;;;5.40;63.90;;;;;;5104495;28;20043;-49
2022/02/12 11:55:54;;;;;;;7.47;1.85;;;5.50;61.90;;;;;;5097250;28;20028;-46
2022/02/12 11:58:42;;;;;;;5.15;1.63;;;5.50;63.70;;;;;;5104504;28;20501;-49
2022/02/12 12:01:28;;;;;;;7.32;2.33;;;5.50;65.20;;;;;;5090104;28;20040;-48
2022/02/12 12:04:53;;;;;;;8.52;1.80;;;5.60;68.50;;;;;;5090241;28;20039;-48
2022/02/12 12:08:00;;;;;;;6.05;2.45;;;5.70;56.50;;;;;;5109690;28;20066;-46
2022/02/12 12:10:51;;;;;;;9.60;1.92;;;5.80;61.70;;;;;;5090356;28;20063;-52
2022/02/12 12:13:34;;;;;;;4.30;1.52;;;5.80;59.10;;;;;;5089411;28;20043;-50
2022/02/12 12:16:59;;;;;;;3.17;1.40;;;5.90;64.60;;;;;;5102509;28;20509;-50
2022/02/12 12:20:31;;;;;;;8.27;3.13;;;6.00;53.10;;;;;;5101489;28;20031;-51
2022/02/12 12:23:56;;;;;;;9.55;2.50;;;6.00;55.20;;;;;;5109737;28;20047;-51
2022/02/12 12:27:22;;;;;;;4.93;1.75;;;5.90;48.80;;;;;;5105086;28;20820;-50
2022/02/12 12:30:50;;;;;;;5.60;1.60;;;5.80;48.60;;;;;;5103102;28;20055;-50
2022/02/12 12:33:58;;;;;;;;;;;5.70;48.10;;;;;;5104068;28;20031;-45
2022/02/12 12:37:24;;;;;;;7.05;1.80;;;5.60;47.70;;;;;;5105407;28;20430;-49
2022/02/12 12:40:50;;;;;;;9.88;1.73;;;5.50;48.20;;;;;;5102476;28;20483;-47
2022/02/12 12:44:33;;;;;;;8.85;2.80;;;5.50;49.20;;;;;;5084523;28;20460;-45
2022/02/12 12:48:07;;;;;;;5.40;1.60;;;5.40;48.50;;;;;;5106976;28;20032;-51
2022/02/12 12:51:36;;;;;;;3.00;1.50;;;5.40;49.60;;;;;;5101907;28;20027;-51
2022/02/12 12:55:07;;;;;;;5.57;2.15;;;5.40;51.60;;;;;;5089200;28;20691;-47
2022/02/12 12:58:36;;;;;;;5.75;1.63;;;5.20;52.00;;;;;;5107054;28;20031;-50
2022/02/12 13:02:13;;;;;;;4.78;1.85;;;5.20;53.60;;;;;;5104495;28;20036;-51
2022/02/12 13:05:39;;;;;;;3.22;1.13;;;5.20;54.20;;;;;;5088931;28;20036;-45
2022/02/12 13:09:04;;;;;;;6.57;2.00;;;5.20;54.00;;;;;;5104573;28;20104;-46
2022/02/12 13:12:29;;;;;;;3.67;1.40;;;5.40;51.70;;;;;;5090679;28;20036;-51
2022/02/12 13:15:56;;;;;;;4.82;1.20;;;5.40;54.50;;;;;;5088668;28;20048;-53
2022/02/12 13:19:22;;;;;;;5.43;1.60;;;5.30;52.50;;;;;;5103317;28;20031;-51
2022/02/12 13:22:47;;;;;;;7.28;2.20;;;5.20;49.70;;;;;;5103653;28;20080;-52
2022/02/12 13:26:16;;;;;;;11.00;2.33;;;5.20;50.80;;;;;;5102679;28;20027;-50
2022/02/12 13:29:21;;;;;;;;;;;5.20;51.20;;;;;;5088718;28;20043;-51
2022/02/12 13:32:46;;;;;;;3.45;1.38;;;5.30;52.10;;;;;;5096154;28;19908;-49
2022/02/12 13:36:12;;;;;;;4.80;1.48;;;5.20;54.40;;;;;;5103059;28;20100;-52
2022/02/12 13:39:43;;;;;;;5.35;1.60;;;5.20;55.50;;;;;;5102684;28;20036;-49
2022/02/12 13:43:10;;;;;;;9.25;1.70;;;5.20;52.10;;;;;;5090557;28;20035;-47
2022/02/12 13:46:34;;;;;;;7.13;1.80;;;5.30;52.00;;;;;;5102028;28;20042;-49
2022/02/12 13:49:59;;;;;;;3.13;1.60;;;5.20;48.20;;;;;;5104916;28;20035;-47
2022/02/12 13:53:40;;;;;;;8.15;2.10;;;5.20;50.00;;;;;;5100749;28;20571;-46
2022/02/12 13:57:17;;;;;;;9.15;2.33;;;5.20;50.20;;;;;;5106549;28;20510;-46
2022/02/12 14:00:42;;;;;;;5.30;2.13;;;5.20;51.10;;;;;;5108092;28;20044;-49
2022/02/12 14:04:12;;;;;;;6.00;1.30;;;5.20;52.00;;;;;;5105538;28;20435;-50
2022/02/12 14:07:16;;;;;;;;;;;5.20;54.90;;;;;;5100270;28;20043;-47
2022/02/12 14:10:42;;;;;;;5.00;1.30;;;5.20;53.50;;;;;;5104375;28;19960;-52
2022/02/12 14:14:07;;;;;;;8.90;2.10;;;5.10;54.90;;;;;;5098147;28;20044;-51
2022/02/12 14:17:33;;;;;;;2.55;1.00;;;5.10;56.80;;;;;;5087683;28;20173;-52
2022/02/12 14:20:58;;;;;;;5.97;1.52;;;5.10;54.50;;;;;;5099898;28;20048;-52
2022/02/12 14:24:24;;;;;;;5.13;1.60;;;5.00;55.10;;;;;;5104955;28;20051;-50
2022/02/12 14:27:49;;;;;;;5.32;1.83;;;5.00;54.00;;;;;;5101288;28;20108;-49
2022/02/12 14:31:14;;;;;;;10.65;4.40;;;4.90;54.00;;;;;;5107840;28;20035;-52
2022/02/12 14:34:39;;;;;;;12.77;4.78;;;4.90;53.10;;;;;;5103077;28;20142;-48
2022/02/12 14:38:05;;;;;;;6.53;2.47;;;4.80;55.10;;;;;;5091133;28;20043;-48
2022/02/12 14:41:30;;;;;;;6.00;2.20;;;4.80;53.90;;;;;;5102073;28;20031;-48
2022/02/12 14:44:56;;;;;;;4.40;1.67;;;4.70;57.90;;;;;;5080833;28;20040;-48
2022/02/12 14:48:21;;;;;;;8.90;2.55;;;4.70;58.00;;;;;;5087654;28;20032;-49
2022/02/12 14:51:46;;;;;;;4.63;1.40;;;4.60;58.80;;;;;;5101962;28;20039;-54
2022/02/12 14:55:12;;;;;;;6.13;2.03;;;4.60;58.40;;;;;;5104115;28;20027;-48
2022/02/12 14:58:37;;;;;;;11.20;4.35;;;4.50;60.00;;;;;;5105844;28;20036;-49
2022/02/12 15:02:03;;;;;;;11.60;3.72;;;4.40;61.60;;;;;;5107347;28;20077;-50
2022/02/12 15:05:28;;;;;;;11.27;4.32;;;4.40;62.90;;;;;;5103420;28;20541;-49
2022/02/12 15:08:53;;;;;;;13.05;3.78;;;4.30;63.00;;;;;;5102960;28;20126;-52
2022/02/12 15:12:19;;;;;;;24.58;9.27;;;4.20;65.30;;;;;;5090965;28;20036;-52
2022/02/12 15:15:45;;;;;;;48.72;20.75;;;4.10;70.00;;;;;;5104470;28;20153;-51
2022/02/12 15:19:10;;;;;;;145.10;64.25;;;4.00;68.20;;;;;;5109099;28;20035;-54
2022/02/12 15:22:35;;;;;;;185.40;81.32;;;3.90;69.00;;;;;;5109249;28;20048;-50
2022/02/12 15:26:02;;;;;;;44.72;24.50;;;3.90;67.90;;;;;;5103389;28;20040;-50
2022/02/12 15:29:26;;;;;;;14.20;9.95;;;3.80;65.30;;;;;;5105123;28;20051;-47
2022/02/12 15:32:51;;;;;;;8.93;4.88;;;3.70;68.20;;;;;;5110881;28;20043;-49
2022/02/12 15:36:17;;;;;;;10.05;6.13;;;3.50;71.90;;;;;;5104694;28;20054;-53
2022/02/12 15:39:42;;;;;;;14.48;8.55;;;3.40;73.80;;;;;;5105524;28;20085;-49
2022/02/12 15:43:07;;;;;;;11.65;5.75;;;3.40;75.10;;;;;;5100083;28;20043;-47
2022/02/12 15:46:33;;;;;;;11.75;6.28;;;3.30;77.10;;;;;;5091266;28;20039;-46
2022/02/12 15:49:58;;;;;;;13.20;7.50;;;3.20;79.00;;;;;;5104978;28;20032;-49
2022/02/12 15:53:24;;;;;;;24.02;13.32;;;3.00;81.90;;;;;;5104895;28;20034;-47
2022/02/12 15:56:49;;;;;;;13.07;6.85;;;2.80;86.40;;;;;;5106882;28;20050;-47
2022/02/12 16:00:14;;;;;;;11.82;6.75;;;2.80;88.60;;;;;;5104899;28;20036;-50
2022/02/12 16:03:39;;;;;;;18.17;14.30;;;2.70;90.20;;;;;;5109988;28;20047;-50
2022/02/12 16:07:05;;;;;;;18.98;14.02;;;2.50;90.90;;;;;;5105913;28;20517;-49
2022/02/12 16:10:31;;;;;;;12.90;8.85;;;2.50;91.40;;;;;;5106486;28;20062;-49
2022/02/12 16:13:16;;;;;;;16.52;8.85;;;2.40;92.50;;;;;;5089918;28;20499;-60
2022/02/12 16:15:43;;;;;;;13.20;7.28;;;2.20;93.30;;;;;;5099015;28;20040;-60
2022/02/12 16:18:09;;;;;;;13.90;9.23;;;2.00;95.30;;;;;;5091198;28;20024;-60
2022/02/12 16:20:34;;;;;;;7.85;5.05;;;1.90;95.60;;;;;;5103460;28;20063;-60
2022/02/12 16:23:40;;;;;;;7.55;5.28;;;1.80;96.70;;;;;;5089849;28;20524;-60
2022/02/12 16:27:05;;;;;;;11.98;5.13;;;1.80;97.60;;;;;;5106321;28;20510;-60
2022/02/12 16:30:30;;;;;;;14.35;5.97;;;1.80;97.00;;;;;;5107802;28;20032;-60
2022/02/12 16:33:56;;;;;;;11.80;6.40;;;1.70;98.30;;;;;;5107920;28;20031;-59
2022/02/12 16:37:21;;;;;;;14.20;7.88;;;1.60;98.20;;;;;;5105976;28;20034;-60
2022/02/12 16:40:47;;;;;;;19.48;12.82;;;1.40;99.90;;;;;;5103110;28;20036;-59
2022/02/12 16:44:12;;;;;;;30.35;17.00;;;1.50;99.80;;;;;;5109006;28;20040;-60
2022/02/12 16:47:39;;;;;;;35.15;22.35;;;1.40;99.90;;;;;;5099615;28;20445;-60
2022/02/12 16:51:03;;;;;;;19.88;12.93;;;1.30;99.90;;;;;;5088826;28;20036;-60
2022/02/12 16:54:29;;;;;;;18.30;9.25;;;1.10;99.90;;;;;;5103283;28;20028;-60
2022/02/12 16:57:53;;;;;;;11.05;5.53;;;1.00;99.90;;;;;;5101530;28;20042;-60
2022/02/12 17:01:19;;;;;;;9.98;4.75;;;0.80;99.90;;;;;;5103455;28;20076;-60
2022/02/12 17:04:44;;;;;;;7.20;3.05;;;0.70;99.90;;;;;;5091832;28;20043;-60
2022/02/12 17:08:10;;;;;;;4.70;2.78;;;0.50;99.90;;;;;;5088880;28;20036;-61
2022/02/12 17:11:35;;;;;;;7.18;4.20;;;0.40;99.90;;;;;;5101164;28;20039;-60
2022/02/12 17:15:05;;;;;;;6.03;3.63;;;0.40;99.90;;;;;;5093881;28;20546;-58
2022/02/12 17:18:27;;;;;;;8.02;5.20;;;0.30;99.90;;;;;;5084917;28;20032;-59
2022/02/12 17:21:51;;;;;;;9.45;2.70;;;0.30;99.90;;;;;;5106309;28;20217;-60
2022/02/12 17:25:16;;;;;;;11.80;5.15;;;0.20;99.90;;;;;;5106849;28;20046;-60
2022/02/12 17:28:42;;;;;;;14.02;5.82;;;0.20;99.90;;;;;;5104905;28;20027;-61
2022/02/12 17:32:07;;;;;;;9.52;4.85;;;0.10;99.90;;;;;;5105859;28;20415;-60